Viking Amber — 9V7985 — position and weather

sailwx.info

Track history (hours):
 
Tides and Currents Weather Stations Pressure Air Temp Water Temp Dewpoint Dewpoint Depression Visibility Wind Speed Wind Dir Waves Ship Positions

Viking Amber

Last reported at 2014-Aug-31 12:30 UTC. Time now 2014-Sep-01 13:38 UTC.
Position N 35°06' E 140°41'.

Length 167 m; draft 8.2 m.

Type: Other ship. MMSI: 563255000.

Date/timePositionNaut miles runAvg speedWind from/ knotsBaromVisibWave heightAir tempDewpointWater temp
2014-Aug-31 12:30N 35°06' E 140°41'1515.2
2014-Aug-31 11:32N 34°59' E 140°25'1414.4
2014-Aug-31 10:34N 34°53' E 140°10'1414.3
2014-Aug-31 09:33N 34°49' E 139°53'1414.1
2014-Aug-31 08:33N 34°59' E 139°41'1514.6
2014-Aug-31 07:33N 35°13' E 139°46'1313.3
2014-Aug-31 06:33N 35°26' E 139°42'2 1.6
2014-Aug-31 05:32N 35°27' E 139°41'0 0.0
2014-Aug-31 04:32N 35°27' E 139°41'0 0.0
2014-Aug-31 03:32N 35°27' E 139°41'0 0.0
2014-Aug-31 02:32N 35°27' E 139°41'0 0.0
2014-Aug-31 01:32N 35°27' E 139°41'0 0.0
2014-Aug-31 00:32N 35°27' E 139°41'0 0.0
2014-Aug-30 23:32N 35°27' E 139°41'0 0.0
2014-Aug-30 22:32N 35°27' E 139°41'2 1.8
2014-Aug-30 21:33N 35°26' E 139°42'1010.2
2014-Aug-30 20:33N 35°16' E 139°46'1110.7
2014-Aug-30 19:33N 35°06' E 139°45'1515.0
2014-Aug-30 18:33N 34°51' E 139°38'1614.9
2014-Aug-30 17:29N 34°38' E 139°27'5116.7
2014-Aug-30 14:27N 34°25' E 138°28'  
Track history (hours):
 
Tides and Currents Weather Stations Pressure Air Temp Water Temp Dewpoint Dewpoint Depression Visibility Wind Speed Wind Dir Waves Ship Positions

Viking Amber

Last reported at 2014-Aug-31 12:30 UTC. Time now 2014-Sep-01 13:38 UTC.
Position N 35°06' E 140°41'.

Length 167 m; draft 8.2 m.

Type: Other ship. MMSI: 563255000.

Date/timePositionNaut miles runAvg speedWind from/ knotsBaromVisibWave heightAir tempDewpointWater temp
2014-Aug-31 12:30N 35°06' E 140°41'1515.2
2014-Aug-31 11:32N 34°59' E 140°25'1414.4
2014-Aug-31 10:34N 34°53' E 140°10'1414.3
2014-Aug-31 09:33N 34°49' E 139°53'1414.1
2014-Aug-31 08:33N 34°59' E 139°41'1514.6
2014-Aug-31 07:33N 35°13' E 139°46'1313.3
2014-Aug-31 06:33N 35°26' E 139°42'2 1.6
2014-Aug-31 05:32N 35°27' E 139°41'0 0.0
2014-Aug-31 04:32N 35°27' E 139°41'0 0.0
2014-Aug-31 03:32N 35°27' E 139°41'0 0.0
2014-Aug-31 02:32N 35°27' E 139°41'0 0.0
2014-Aug-31 01:32N 35°27' E 139°41'0 0.0
2014-Aug-31 00:32N 35°27' E 139°41'0 0.0
2014-Aug-30 23:32N 35°27' E 139°41'0 0.0
2014-Aug-30 22:32N 35°27' E 139°41'2 1.8
2014-Aug-30 21:33N 35°26' E 139°42'1010.2
2014-Aug-30 20:33N 35°16' E 139°46'1110.7
2014-Aug-30 19:33N 35°06' E 139°45'1515.0
2014-Aug-30 18:33N 34°51' E 139°38'1614.9
2014-Aug-30 17:29N 34°38' E 139°27'5116.7
2014-Aug-30 14:27N 34°25' E 138°28'  

Dump ship's entire track history